Time;durP1;ratioP1;P1;durP2;ratioP2;P2;SDS_P1;SDS_P2;PMS_P1;PMS_P2;Temp;Humidity;BMP_temperature;BMP_pressure;BME280_temperature;BME280_humidity;BME280_pressure;Samples;Min_cycle;Max_cycle;Signal;HPM_P1;HPM_P2
2022/04/09 00:00:16;;;;;;;14.27;2.20;;;;;;;4.98;77.71;100336.53;5054795;28;20043;-72
2022/04/09 00:02:41;;;;;;;15.40;2.25;;;;;;;5.03;77.23;100335.22;5054539;28;20029;-72
2022/04/09 00:05:09;;;;;;;15.13;2.13;;;;;;;4.98;77.69;100346.75;5055810;28;20107;-74
2022/04/09 00:07:34;;;;;;;9.68;1.73;;;;;;;4.91;77.92;100342.44;5055546;28;20106;-74
2022/04/09 00:09:59;;;;;;;11.82;2.28;;;;;;;4.96;77.27;100342.75;5055806;28;20036;-73
2022/04/09 00:12:25;;;;;;;9.75;2.42;;;;;;;4.99;77.54;100355.25;5055680;28;20095;-73
2022/04/09 00:14:50;;;;;;;15.02;2.30;;;;;;;5.11;77.72;100359.06;5054275;28;20120;-73
2022/04/09 00:17:15;;;;;;;10.23;1.98;;;;;;;5.26;76.57;100368.66;5054302;28;20116;-73
2022/04/09 00:19:41;;;;;;;13.25;2.33;;;;;;;5.34;75.83;100382.25;5055501;28;20021;-74
2022/04/09 00:22:06;;;;;;;14.45;1.80;;;;;;;5.45;75.57;100403.41;5054187;28;20147;-73
2022/04/09 00:24:31;;;;;;;12.85;2.42;;;;;;;5.45;77.28;100378.56;5054413;28;20495;-73
2022/04/09 00:26:56;;;;;;;14.60;2.38;;;;;;;5.36;78.42;100389.81;5055319;28;20472;-73
2022/04/09 00:29:22;;;;;;;9.00;2.10;;;;;;;5.25;79.29;100387.56;5055356;28;20024;-72
2022/04/09 00:31:47;;;;;;;9.27;2.00;;;;;;;5.13;79.68;100394.78;5037495;28;20123;-73
2022/04/09 00:34:13;;;;;;;16.10;2.13;;;;;;;5.03;80.41;100391.56;5054062;28;20016;-73
2022/04/09 00:36:38;;;;;;;9.57;1.80;;;;;;;4.94;79.97;100393.31;5055495;28;20040;-73
2022/04/09 00:39:03;;;;;;;10.25;2.40;;;;;;;4.91;79.74;100398.78;5037196;28;20025;-73
2022/04/09 00:41:29;;;;;;;14.18;2.10;;;;;;;4.89;79.63;100408.38;5055120;28;20056;-73
2022/04/09 00:43:54;;;;;;;10.00;1.92;;;;;;;4.83;80.04;100402.13;5055471;28;20036;-73
2022/04/09 00:46:19;;;;;;;9.27;2.00;;;;;;;4.75;79.59;100405.47;5053937;28;20033;-73
2022/04/09 00:48:45;;;;;;;14.02;2.05;;;;;;;4.86;79.77;100406.94;5054912;28;20460;-74
2022/04/09 00:51:10;;;;;;;12.90;2.00;;;;;;;4.83;78.97;100412.34;5055362;28;20048;-73
2022/04/09 00:53:39;;;;;;;12.18;1.88;;;;;;;4.86;79.18;100417.19;5036898;28;20464;-73
2022/04/09 00:56:15;;;;;;;9.23;1.70;;;;;;;4.81;78.86;100413.50;5053633;28;20028;-73
2022/04/09 00:58:47;;;;;;;11.38;2.53;;;;;;;4.83;79.67;100419.25;5054755;28;20075;-72
2022/04/09 01:01:14;;;;;;;12.88;1.77;;;;;;;4.89;79.41;100419.44;5054926;28;20021;-73
2022/04/09 01:03:40;;;;;;;8.82;1.90;;;;;;;4.83;79.81;100430.28;5036781;28;20439;-72
2022/04/09 01:06:08;;;;;;;15.88;2.17;;;;;;;4.80;79.78;100434.91;5054729;28;20480;-73
2022/04/09 01:08:33;;;;;;;9.70;1.85;;;;;;;4.74;80.39;100436.34;5054372;28;20049;-72
2022/04/09 01:10:58;;;;;;;10.73;2.00;;;;;;;4.60;80.83;100439.50;5055243;28;20055;-73
2022/04/09 01:13:24;;;;;;;13.57;2.20;;;;;;;4.62;81.85;100447.84;5036757;28;20056;-73
2022/04/09 01:15:49;;;;;;;10.82;2.13;;;;;;;4.77;81.07;100453.16;5054476;28;20029;-74
2022/04/09 01:18:15;;;;;;;12.95;2.50;;;;;;;4.69;81.78;100480.34;5054420;28;20044;-72
2022/04/09 01:20:41;;;;;;;13.80;2.00;;;;;;;4.63;82.68;100475.84;5036594;28;20036;-73
2022/04/09 01:23:06;;;;;;;8.75;1.80;;;;;;;4.29;85.46;100466.44;5053013;28;20548;-72
2022/04/09 01:25:32;;;;;;;9.90;1.90;;;;;;;4.33;86.51;100481.50;5054269;28;20031;-72
2022/04/09 01:27:57;;;;;;;8.95;2.05;;;;;;;4.37;87.37;100485.31;5036500;28;20029;-72
2022/04/09 01:30:23;;;;;;;14.63;2.30;;;;;;;4.40;87.07;100498.63;5052922;28;20075;-72
2022/04/09 01:32:48;;;;;;;13.73;2.28;;;;;;;4.47;87.53;100494.50;5054144;28;20048;-71
2022/04/09 01:35:14;;;;;;;9.82;1.90;;;;;;;4.48;87.18;100490.19;5054239;28;20508;-71
2022/04/09 01:37:39;;;;;;;14.93;1.92;;;;;;;4.47;86.75;100493.69;5052726;28;20472;-72
2022/04/09 01:40:05;;;;;;;8.95;1.92;;;;;;;4.48;87.56;100493.53;5053854;28;20029;-72
2022/04/09 01:42:30;;;;;;;11.43;2.00;;;;;;;4.46;86.96;100502.31;5052571;28;20078;-71
2022/04/09 01:44:56;;;;;;;11.18;1.80;;;;;;;4.42;86.88;100501.81;5053841;28;20356;-72
2022/04/09 01:47:21;;;;;;;8.88;1.75;;;;;;;4.45;87.04;100498.16;5053640;28;20037;-72
2022/04/09 01:49:47;;;;;;;8.90;1.90;;;;;;;4.33;87.83;100510.44;5053813;28;20021;-71
2022/04/09 01:52:12;;;;;;;15.30;2.08;;;;;;;4.34;87.51;100516.34;5052491;28;20025;-72
2022/04/09 01:54:38;;;;;;;14.73;1.70;;;;;;;4.30;87.83;100523.53;5053689;28;20021;-72
2022/04/09 01:57:03;;;;;;;18.65;2.80;;;;;;;4.29;88.27;100527.03;5052597;28;20128;-72
2022/04/09 01:59:28;;;;;;;13.73;1.83;;;;;;;4.36;88.47;100533.16;5053606;28;20025;-72
2022/04/09 02:01:54;;;;;;;11.48;2.05;;;;;;;4.31;87.68;100532.78;5053765;28;20025;-72
2022/04/09 02:04:20;;;;;;;7.70;1.70;;;;;;;4.39;87.08;100532.03;5053442;28;20029;-71
2022/04/09 02:06:46;;;;;;;7.13;1.50;;;;;;;4.37;86.83;100544.19;5052240;28;20433;-72
2022/04/09 02:09:12;;;;;;;15.55;2.13;;;;;;;4.29;87.35;100550.88;5053347;28;20051;-72
2022/04/09 02:11:41;;;;;;;12.52;2.40;;;;;;;4.28;86.58;100544.13;5053451;28;20032;-72
2022/04/09 02:14:09;;;;;;;14.90;2.28;;;;;;;4.30;86.61;100542.22;5053367;28;20476;-72
2022/04/09 02:16:35;;;;;;;12.50;2.60;;;;;;;4.37;86.91;100544.19;5053649;28;20380;-72
2022/04/09 02:19:00;;;;;;;9.88;1.83;;;;;;;4.42;86.25;100541.97;5053234;28;20029;-72
2022/04/09 02:21:25;;;;;;;8.02;1.67;;;;;;;4.43;85.67;100553.78;5053371;28;20068;-72
2022/04/09 02:23:51;;;;;;;15.52;2.38;;;;;;;4.43;86.18;100548.69;5053238;28;20021;-72
2022/04/09 02:26:16;;;;;;;7.65;1.90;;;;;;;4.52;85.19;100553.69;5053115;28;20024;-72
2022/04/09 02:28:41;;;;;;;8.43;1.50;;;;;;;4.46;86.07;100550.94;5053202;28;20021;-72
2022/04/09 02:31:07;;;;;;;13.68;2.08;;;;;;;4.35;85.94;100551.22;5051916;28;20020;-72
2022/04/09 02:33:32;;;;;;;12.73;2.10;;;;;;;4.33;85.83;100559.03;5053145;28;20029;-73
2022/04/09 02:35:57;;;;;;;15.00;1.90;;;;;;;4.30;85.76;100557.56;5053016;28;20028;-73
2022/04/09 02:38:24;;;;;;;15.57;1.90;;;;;;;4.38;86.65;100563.72;5051711;28;20028;-72
2022/04/09 02:40:49;;;;;;;9.15;1.95;;;;;;;4.35;86.00;100566.56;5053445;28;20020;-72
2022/04/09 02:43:16;;;;;;;11.25;1.98;;;;;;;4.29;85.86;100575.66;5052926;28;20073;-72
2022/04/09 02:45:41;;;;;;;8.18;1.70;;;;;;;4.34;85.72;100575.97;5052723;28;20032;-73
2022/04/09 02:48:07;;;;;;;12.35;1.98;;;;;;;4.46;84.99;100579.06;5052620;28;20104;-72
2022/04/09 02:50:32;;;;;;;11.57;1.95;;;;;;;4.39;85.64;100580.66;5035039;28;20083;-72
2022/04/09 02:52:57;;;;;;;10.32;1.98;;;;;;;4.44;86.16;100583.56;5052942;28;20028;-72
2022/04/09 02:55:23;;;;;;;10.07;2.08;;;;;;;4.34;86.12;100583.66;5052956;28;20037;-74
2022/04/09 02:57:50;;;;;;;15.88;2.35;;;;;;;4.36;86.71;100584.31;5051525;28;20035;-72
2022/04/09 03:00:15;;;;;;;17.65;2.25;;;;;;;4.41;86.36;100587.22;5052765;28;20023;-73
2022/04/09 03:02:42;;;;;;;16.80;2.53;;;;;;;4.40;87.41;100589.91;5051558;28;20056;-72
2022/04/09 03:05:08;;;;;;;16.70;2.83;;;;;;;4.51;86.90;100597.34;5034937;28;20028;-71
2022/04/09 03:07:34;;;;;;;15.93;2.67;;;;;;;4.47;87.77;100591.75;5052579;28;20110;-72
2022/04/09 03:09:59;;;;;;;15.38;2.20;;;;;;;4.44;88.78;100604.84;5052772;28;20029;-72
2022/04/09 03:12:24;;;;;;;19.88;3.20;;;;;;;4.49;87.89;100606.94;5051460;28;20029;-72
2022/04/09 03:14:50;;;;;;;14.20;2.25;;;;;;;4.48;89.22;100611.25;5051443;28;20025;-72
2022/04/09 03:17:15;;;;;;;13.20;2.50;;;;;;;4.53;89.04;100621.03;5052688;28;20377;-73
2022/04/09 03:19:40;;;;;;;16.40;2.53;;;;;;;4.51;89.06;100621.19;5051353;28;20035;-71
2022/04/09 03:22:05;;;;;;;16.23;2.70;;;;;;;4.47;88.46;100619.88;5051307;28;20063;-71
2022/04/09 03:24:31;;;;;;;11.35;2.45;;;;;;;4.56;89.07;100619.94;5052696;28;20032;-72
2022/04/09 03:26:56;;;;;;;12.02;2.40;;;;;;;4.54;89.00;100622.63;5051333;28;20025;-72
2022/04/09 03:29:21;;;;;;;13.07;2.45;;;;;;;4.60;88.59;100639.16;5052564;28;20082;-73
2022/04/09 03:31:47;;;;;;;15.57;2.17;;;;;;;4.44;87.88;100650.91;5052505;28;20070;-72
2022/04/09 03:34:12;;;;;;;13.75;1.83;;;;;;;4.40;87.30;100654.72;5051212;28;20021;-73
2022/04/09 03:36:39;;;;;;;9.65;1.63;;;;;;;4.48;88.55;100677.78;5052552;28;20029;-73
2022/04/09 03:39:05;;;;;;;12.82;1.50;;;;;;;4.40;87.26;100667.50;5051201;28;20016;-72
2022/04/09 03:41:30;;;;;;;9.60;1.92;;;;;;;4.35;86.52;100651.81;5052442;28;20545;-71
2022/04/09 03:43:55;;;;;;;6.88;1.48;;;;;;;4.41;86.83;100647.84;5052388;28;20031;-72
2022/04/09 03:46:21;;;;;;;11.68;1.75;;;;;;;4.40;87.98;100654.72;5052383;28;20035;-72
2022/04/09 03:48:46;;;;;;;8.95;1.95;;;;;;;4.40;87.86;100662.41;5052515;28;20159;-71
2022/04/09 03:51:12;;;;;;;9.02;1.60;;;;;;;4.45;88.35;100667.03;5051128;28;20025;-73
2022/04/09 03:53:37;;;;;;;11.77;2.38;;;;;;;4.40;88.76;100664.94;5052308;28;20535;-72
2022/04/09 03:56:04;;;;;;;11.68;1.90;;;;;;;4.46;87.83;100661.78;5052365;28;20108;-72
2022/04/09 03:58:29;;;;;;;10.40;1.90;;;;;;;4.38;88.65;100666.06;5051758;28;20021;-73
2022/04/09 04:00:54;;;;;;;8.93;1.73;;;;;;;4.24;89.02;100655.38;5054820;28;20424;-73
2022/04/09 04:03:20;;;;;;;10.13;1.70;;;;;;;4.23;88.84;100658.91;5054385;28;20036;-73
2022/04/09 04:05:48;;;;;;;9.27;1.75;;;;;;;4.25;89.31;100663.88;5037893;28;20392;-74
2022/04/09 04:08:14;;;;;;;11.15;1.60;;;;;;;4.16;89.34;100673.22;5055562;28;20096;-72
2022/04/09 04:10:40;;;;;;;6.82;1.80;;;;;;;4.12;90.03;100674.47;5055795;28;20033;-72
2022/04/09 04:13:06;;;;;;;10.15;1.65;;;;;;;4.07;91.09;100682.59;5055640;28;20029;-72
2022/04/09 04:15:35;;;;;;;9.48;1.67;;;;;;;4.23;91.12;100687.03;5054356;28;20063;-73
2022/04/09 04:18:00;;;;;;;14.45;2.20;;;;;;;4.31;91.27;100683.72;5055436;28;20087;-73
2022/04/09 04:20:26;;;;;;;9.68;1.80;;;;;;;4.30;90.77;100693.16;5054296;28;20033;-73
2022/04/09 04:22:52;;;;;;;8.10;1.60;;;;;;;4.30;91.23;100692.38;5055398;28;20028;-72
2022/04/09 04:25:17;;;;;;;12.13;2.17;;;;;;;4.30;89.34;100705.16;5055401;28;20021;-73
2022/04/09 04:27:51;;;;;;;15.68;2.15;;;;;;;4.36;90.60;100716.56;5054082;28;20033;-73
2022/04/09 04:30:16;;;;;;;;;;;;;;;4.47;87.04;100691.53;5054550;28;20021;-72
2022/04/09 04:32:42;;;;;;;8.73;1.58;;;;;;;4.45;84.59;100695.19;5055311;28;19912;-71
2022/04/09 04:35:08;;;;;;;7.13;0.98;;;;;;;4.43;82.40;100697.91;5055250;28;20036;-72
2022/04/09 04:38:00;;;;;;;7.82;1.30;;;;;;;4.40;83.92;100699.94;5053913;28;20116;-72
2022/04/09 04:40:25;;;;;;;7.07;1.27;;;;;;;4.36;83.52;100702.00;5052998;28;20451;-73
2022/04/09 04:42:51;;;;;;;11.75;1.83;;;;;;;4.28;85.37;100705.28;5055036;28;20025;-73
2022/04/09 04:45:16;;;;;;;8.57;1.40;;;;;;;4.15;85.74;100706.63;5053790;28;20459;-73
2022/04/09 04:47:45;;;;;;;11.13;1.60;;;;;;;4.14;86.19;100710.13;5055044;28;20468;-73
2022/04/09 04:50:12;;;;;;;9.05;1.45;;;;;;;4.19;86.06;100720.72;5054845;28;20028;-73
2022/04/09 04:52:37;;;;;;;9.30;1.45;;;;;;;4.24;85.39;100731.34;5054899;28;20108;-73
2022/04/09 04:55:03;;;;;;;10.02;1.40;;;;;;;4.23;85.86;100730.53;5054903;28;20056;-73
2022/04/09 04:57:28;;;;;;;9.15;1.52;;;;;;;4.23;85.74;100727.16;5053586;28;20026;-73
2022/04/09 04:59:56;;;;;;;11.18;1.73;;;;;;;4.27;85.48;100736.16;5058315;28;20020;-72
2022/04/09 05:02:21;;;;;;;10.68;2.30;;;;;;;4.33;85.16;100740.69;5053979;28;20162;-72
2022/04/09 05:04:46;;;;;;;13.80;2.03;;;;;;;4.24;86.39;100739.81;5054468;28;20021;-72
2022/04/09 05:07:12;;;;;;;13.23;1.80;;;;;;;4.24;86.44;100746.69;5055332;28;20032;-72
2022/04/09 05:09:37;;;;;;;13.77;2.85;;;;;;;4.18;87.43;100748.06;5053792;28;20501;-73
2022/04/09 05:12:02;;;;;;;10.68;1.85;;;;;;;4.30;86.23;100748.66;5053413;28;20418;-74
2022/04/09 05:14:28;;;;;;;11.05;1.80;;;;;;;4.31;87.40;100763.03;5054838;28;20025;-73
2022/04/09 05:16:53;;;;;;;12.85;1.92;;;;;;;4.41;87.03;100766.34;5037019;28;20110;-74
2022/04/09 05:19:18;;;;;;;11.10;1.92;;;;;;;4.55;85.99;100766.78;5053169;28;20035;-73
2022/04/09 05:21:47;;;;;;;13.82;2.28;;;;;;;4.57;86.57;100788.69;5054475;28;20029;-73
2022/04/09 05:24:12;;;;;;;10.93;2.35;;;;;;;4.38;85.07;100768.41;5054256;28;20021;-73
2022/04/09 05:26:38;;;;;;;10.80;1.70;;;;;;;4.62;84.70;100783.13;5053733;28;20037;-73
2022/04/09 05:29:03;;;;;;;16.83;1.77;;;;;;;4.69;85.97;100779.03;5052926;28;20036;-73
2022/04/09 05:31:28;;;;;;;13.80;2.45;;;;;;;4.52;84.34;100753.31;5054264;28;20032;-73
2022/04/09 05:33:55;;;;;;;8.75;1.70;;;;;;;4.71;85.55;100789.94;5052844;28;20133;-73
2022/04/09 05:36:20;;;;;;;10.40;1.95;;;;;;;4.75;85.21;100788.69;5052863;28;20036;-73
2022/04/09 05:38:46;;;;;;;14.85;2.00;;;;;;;4.89;85.20;100797.56;5052849;28;20029;-73
2022/04/09 05:41:11;;;;;;;12.25;2.00;;;;;;;4.83;86.09;100800.75;5053979;28;20052;-72
2022/04/09 05:43:36;;;;;;;12.05;1.80;;;;;;;4.71;85.78;100805.28;5053863;28;20051;-73
2022/04/09 05:46:02;;;;;;;9.15;1.90;;;;;;;4.84;85.39;100815.16;5052696;28;20024;-73
2022/04/09 05:48:27;;;;;;;7.18;1.45;;;;;;;4.97;84.77;100813.81;5056445;28;20035;-72
2022/04/09 05:50:52;;;;;;;10.40;1.88;;;;;;;5.13;85.17;100828.50;5064428;28;20357;-73
2022/04/09 05:53:17;;;;;;;12.60;2.00;;;;;;;5.55;83.37;100829.53;5053801;28;20016;-72
2022/04/09 05:55:43;;;;;;;11.15;2.03;;;;;;;5.89;81.75;100824.41;5053836;28;20025;-72
2022/04/09 05:58:08;;;;;;;8.57;1.77;;;;;;;6.16;81.62;100833.66;5053940;28;20081;-73
2022/04/09 06:00:34;;;;;;;8.68;1.67;;;;;;;6.05;82.03;100837.31;5054282;28;20025;-73
2022/04/09 06:03:01;;;;;;;9.90;1.95;;;;;;;5.92;81.50;100824.09;5067036;28;20025;-72
2022/04/09 06:05:27;;;;;;;12.05;2.00;;;;;;;6.05;81.65;100836.50;5055740;28;20021;-73
2022/04/09 06:07:52;;;;;;;13.70;2.00;;;;;;;5.83;81.46;100843.75;5051632;28;20048;-73
2022/04/09 06:10:19;;;;;;;10.68;1.70;;;;;;;5.74;81.31;100851.59;5052456;28;20044;-73
2022/04/09 06:12:44;;;;;;;14.93;1.50;;;;;;;5.49;80.22;100848.88;5052218;28;20043;-73
2022/04/09 06:15:10;;;;;;;5.65;1.23;;;;;;;5.64;81.83;100854.28;5053713;28;20029;-73
2022/04/09 06:17:36;;;;;;;9.23;1.95;;;;;;;5.74;81.40;100857.50;5053611;28;20091;-73
2022/04/09 06:20:16;;;;;;;10.18;1.77;;;;;;;6.06;79.15;100863.78;5053427;28;20126;-72
2022/04/09 06:22:41;;;;;;;16.02;2.08;;;;;;;5.94;79.66;100852.19;5051537;28;20033;-74
2022/04/09 06:25:07;;;;;;;8.10;1.92;;;;;;;5.82;79.57;100870.38;5053605;28;20020;-73
2022/04/09 06:27:35;;;;;;;4.82;1.15;;;;;;;6.04;78.01;100868.25;5055389;28;20104;-73
2022/04/09 06:30:04;;;;;;;9.10;1.42;;;;;;;6.52;78.05;100877.03;5056955;28;20395;-74
2022/04/09 06:32:29;;;;;;;7.35;1.40;;;;;;;7.31;77.87;100882.53;5053230;28;20075;-73
2022/04/09 06:34:54;;;;;;;5.47;1.40;;;;;;;7.66;75.84;100894.22;5053062;28;20025;-73
2022/04/09 06:37:19;;;;;;;12.30;1.60;;;;;;;6.54;77.82;100896.47;5051756;28;20034;-73
2022/04/09 06:39:45;;;;;;;7.65;1.63;;;;;;;5.99;79.80;100893.56;5035109;28;20116;-73
2022/04/09 06:42:10;;;;;;;8.02;1.58;;;;;;;5.79;82.56;100896.34;5053121;28;20029;-73
2022/04/09 06:44:35;;;;;;;8.82;1.27;;;;;;;5.52;82.56;100863.97;5053623;28;20056;-73
2022/04/09 06:47:01;;;;;;;7.90;1.92;;;;;;;5.70;81.69;100911.81;5052653;28;20032;-73
2022/04/09 06:49:26;;;;;;;5.72;1.55;;;;;;;5.83;81.73;100902.75;5050107;28;20528;-73
2022/04/09 06:51:51;;;;;;;6.25;1.42;;;;;;;5.74;81.34;100906.25;5050677;28;20025;-74
2022/04/09 06:54:18;;;;;;;13.43;1.55;;;;;;;5.75;82.83;100912.97;5051570;28;20028;-73
2022/04/09 06:56:44;;;;;;;8.57;1.58;;;;;;;5.85;82.13;100905.19;5050038;28;20017;-72
2022/04/09 06:59:09;;;;;;;9.05;1.60;;;;;;;7.63;75.25;100915.91;5051385;28;20392;-74
2022/04/09 07:01:34;;;;;;;7.57;1.38;;;;;;;12.03;60.59;100920.84;5052406;28;20029;-74
2022/04/09 07:04:00;;;;;;;8.55;1.50;;;;;;;14.03;53.70;100916.50;5050238;28;20025;-73
2022/04/09 07:06:25;;;;;;;7.93;1.60;;;;;;;15.04;48.04;100894.91;5052367;28;20040;-74
2022/04/09 07:08:51;;;;;;;8.50;2.40;;;;;;;16.99;44.15;100927.06;5051181;28;20064;-74
2022/04/09 07:11:16;;;;;;;7.80;1.60;;;;;;;17.06;43.39;100924.34;5050999;28;20404;-72
2022/04/09 07:13:41;;;;;;;6.68;1.52;;;;;;;17.22;41.56;100928.91;5049533;28;20017;-73
2022/04/09 07:16:07;;;;;;;7.55;1.70;;;;;;;17.61;43.19;100934.47;5050185;28;20032;-73
2022/04/09 07:18:33;;;;;;;8.70;1.45;;;;;;;16.70;44.00;100946.97;5049142;28;20498;-74
2022/04/09 07:20:59;;;;;;;5.93;1.40;;;;;;;10.02;61.60;100963.19;5050254;28;20561;-73
2022/04/09 07:23:24;;;;;;;4.50;1.23;;;;;;;8.70;66.20;100957.50;5032719;28;20059;-73
2022/04/09 07:25:49;;;;;;;9.82;1.20;;;;;;;11.78;60.26;100948.19;5051253;28;20094;-74
2022/04/09 07:28:15;;;;;;;5.38;1.10;;;;;;;10.68;65.23;100957.25;5050730;28;20505;-74
2022/04/09 07:30:42;;;;;;;10.18;1.33;;;;;;;13.90;53.61;100953.75;5033857;28;20071;-73
2022/04/09 07:33:07;;;;;;;8.30;1.52;;;;;;;11.37;58.23;100959.25;5053959;28;20101;-74
2022/04/09 07:35:35;;;;;;;4.85;1.10;;;;;;;10.51;62.49;100967.00;5055351;28;20025;-74
2022/04/09 07:38:00;;;;;;;7.47;1.35;;;;;;;15.01;48.08;100965.59;5053307;28;20021;-73
2022/04/09 07:40:29;;;;;;;6.85;1.42;;;;;;;12.00;54.77;100960.09;5054853;28;20036;-73
2022/04/09 07:42:57;;;;;;;7.25;1.40;;;;;;;10.70;58.72;100968.97;5054367;28;20484;-73
2022/04/09 07:45:23;;;;;;;7.22;1.48;;;;;;;8.50;66.87;100982.91;5053524;28;20043;-73
2022/04/09 07:47:53;;;;;;;10.50;1.58;;;;;;;7.43;73.20;100995.16;5054105;28;20020;-72
2022/04/09 07:50:19;;;;;;;10.77;1.58;;;;;;;7.05;75.77;100991.47;5036255;28;20041;-73
2022/04/09 07:52:44;;;;;;;7.07;1.40;;;;;;;6.93;76.22;100997.84;5054601;28;20035;-72
2022/04/09 07:55:14;;;;;;;5.47;1.50;;;;;;;6.91;77.10;100995.44;5055976;28;20032;-73
2022/04/09 07:57:40;;;;;;;7.30;1.30;;;;;;;6.85;78.46;100992.66;5055989;28;20025;-74
2022/04/09 08:00:07;;;;;;;7.60;1.58;;;;;;;6.86;77.79;100994.31;5054530;28;20387;-73
2022/04/09 08:02:33;;;;;;;10.63;1.77;;;;;;;7.03;77.31;100995.94;5055803;28;20409;-73
2022/04/09 08:04:58;;;;;;;7.97;1.50;;;;;;;7.10;78.67;100996.09;5054598;28;20021;-72
2022/04/09 08:07:23;;;;;;;8.40;1.92;;;;;;;9.74;70.84;100999.13;5054279;28;20033;-73
2022/04/09 08:09:49;;;;;;;10.60;1.98;;;;;;;13.49;56.26;100990.34;5054480;28;20111;-73
2022/04/09 08:12:15;;;;;;;9.35;2.03;;;;;;;15.63;50.70;101004.75;5037730;28;20083;-73
2022/04/09 08:14:41;;;;;;;6.90;2.00;;;;;;;16.40;47.68;101002.56;5054361;28;20021;-73
2022/04/09 08:17:07;;;;;;;7.55;1.80;;;;;;;16.30;47.15;101010.09;5055559;28;20537;-73
2022/04/09 08:19:32;;;;;;;6.18;1.85;;;;;;;15.06;51.88;101004.00;5055795;28;20384;-74
2022/04/09 08:21:59;;;;;;;6.85;1.85;;;;;;;15.39;48.83;101008.16;5054271;28;20112;-74
2022/04/09 08:24:25;;;;;;;12.63;2.50;;;;;;;16.70;46.94;101013.00;5038119;28;20565;-73
2022/04/09 08:26:50;;;;;;;6.05;1.98;;;;;;;17.51;44.85;101013.41;5055495;28;20033;-74
2022/04/09 08:29:19;;;;;;;7.32;1.90;;;;;;;16.30;45.47;101014.53;5055426;28;20465;-75
2022/04/09 08:31:47;;;;;;;9.32;2.10;;;;;;;15.87;47.06;101016.19;5054148;28;20092;-74
2022/04/09 08:34:16;;;;;;;7.90;1.90;;;;;;;16.10;46.80;101018.16;5055371;28;20428;-74
2022/04/09 08:36:42;;;;;;;9.45;2.03;;;;;;;15.98;45.37;101018.06;5055727;28;20419;-73
2022/04/09 08:39:07;;;;;;;7.47;1.90;;;;;;;16.99;44.40;101015.84;5037271;28;20036;-74
2022/04/09 08:41:36;;;;;;;12.23;2.00;;;;;;;15.82;46.42;101021.22;5053893;28;20357;-75
2022/04/09 08:44:01;;;;;;;9.15;2.20;;;;;;;16.19;44.69;101016.84;5054154;28;20021;-74
2022/04/09 08:46:26;;;;;;;7.13;1.63;;;;;;;15.88;46.35;101023.00;5055067;28;20039;-74
2022/04/09 08:48:52;;;;;;;8.95;1.50;;;;;;;12.50;51.90;101032.47;5053802;28;20448;-74
2022/04/09 08:51:18;;;;;;;8.38;1.73;;;;;;;11.27;58.13;101053.50;5055061;28;20036;-75
2022/04/09 08:53:45;;;;;;;6.07;1.33;;;;;;;10.43;61.20;101057.50;5053761;28;20027;-75
2022/04/09 08:56:12;;;;;;;5.63;1.70;;;;;;;9.19;64.20;101055.16;5036949;28;20445;-73
2022/04/09 08:58:37;;;;;;;5.35;1.30;;;;;;;8.22;70.11;101064.06;5054448;28;20032;-72
2022/04/09 09:01:02;;;;;;;8.45;1.20;;;;;;;7.91;72.98;101062.19;5052978;28;20479;-72
2022/04/09 09:03:28;;;;;;;6.40;1.50;;;;;;;7.67;73.23;101063.78;5052532;28;20516;-72
2022/04/09 09:05:53;;;;;;;5.03;1.42;;;;;;;7.90;72.93;101058.00;5054285;28;20095;-74
2022/04/09 09:08:40;;;;;;;5.88;1.30;;;;;;;7.88;74.79;101068.47;5036408;28;20412;-72
2022/04/09 09:11:05;;;;;;;5.22;1.25;;;;;;;7.72;74.05;101071.03;5054609;28;20051;-73
2022/04/09 09:13:45;;;;;;;8.82;1.65;;;;;;;7.61;74.26;101066.22;5054293;28;20445;-73
2022/04/09 09:16:20;;;;;;;9.68;1.70;;;;;;;7.78;71.62;101069.59;5053331;28;20451;-72
2022/04/09 09:18:50;;;;;;;6.90;1.60;;;;;;;9.59;67.60;101081.66;5051941;28;20103;-73
2022/04/09 09:21:18;;;;;;;5.97;1.58;;;;;;;9.71;66.54;101082.06;5035229;28;20028;-72
2022/04/09 09:23:43;;;;;;;8.88;1.65;;;;;;;9.35;70.96;101079.25;5052863;28;20084;-73
2022/04/09 09:26:08;;;;;;;7.25;1.60;;;;;;;9.32;68.84;101087.31;5052276;28;20121;-74
2022/04/09 09:28:34;;;;;;;11.43;1.98;;;;;;;9.00;71.28;101079.59;5050767;28;20060;-75
2022/04/09 09:31:01;;;;;;;8.93;1.70;;;;;;;8.33;73.29;101102.34;5052592;28;20048;-74
2022/04/09 09:33:28;;;;;;;10.85;1.80;;;;;;;7.97;76.90;101101.91;5052806;28;20017;-73
2022/04/09 09:35:59;;;;;;;6.78;1.10;;;;;;;7.73;75.29;101100.13;5054634;28;20036;-73
2022/04/09 09:38:34;;;;;;;6.05;1.10;;;;;;;7.66;75.15;101100.00;5053033;28;20040;-74
2022/04/09 09:41:01;;;;;;;8.13;1.40;;;;;;;7.81;72.65;101110.44;5036151;28;20039;-73
2022/04/09 09:43:26;;;;;;;7.57;1.65;;;;;;;7.57;73.41;101106.09;5052727;28;20017;-74
2022/04/09 09:45:54;;;;;;;9.57;1.50;;;;;;;7.53;73.68;101115.88;5052616;28;20024;-73
2022/04/09 09:48:22;;;;;;;13.02;1.75;;;;;;;7.51;72.83;101115.25;5053756;28;20035;-75
2022/04/09 09:50:48;;;;;;;12.45;1.55;;;;;;;7.63;72.66;101120.88;5053674;28;20025;-75
2022/04/09 09:53:14;;;;;;;10.00;1.70;;;;;;;8.80;70.92;101125.63;5052702;28;20036;-74
2022/04/09 09:55:45;;;;;;;9.73;1.60;;;;;;;9.25;66.91;101113.00;5052527;28;20102;-75
2022/04/09 09:58:16;;;;;;;13.52;1.60;;;;;;;10.37;66.38;101124.41;5053030;28;20037;-74
2022/04/09 10:00:45;;;;;;;11.65;1.40;;;;;;;11.38;64.31;101126.44;5052526;28;20028;-75
2022/04/09 10:03:13;;;;;;;7.90;1.40;;;;;;;11.24;63.67;101125.50;5053740;28;20032;-73
2022/04/09 10:05:39;;;;;;;12.80;1.58;;;;;;;11.24;64.87;101108.19;5052180;28;20112;-72
2022/04/09 10:08:05;;;;;;;9.13;1.80;;;;;;;10.58;67.71;101123.69;5053598;28;20051;-74
2022/04/09 10:10:36;;;;;;;7.60;1.35;;;;;;;9.46;68.17;101151.88;5053632;28;20021;-74
2022/04/09 10:13:03;;;;;;;11.23;1.90;;;;;;;8.14;69.87;101149.84;5053631;28;20025;-74
2022/04/09 10:15:29;;;;;;;6.28;1.10;;;;;;;7.30;72.16;101154.22;5052112;28;20048;-74
2022/04/09 10:17:59;;;;;;;3.83;1.17;;;;;;;7.00;74.00;101153.81;5053777;28;20487;-75
2022/04/09 10:20:28;;;;;;;3.53;0.88;;;;;;;7.01;72.85;101159.75;5051938;28;20025;-73
2022/04/09 10:22:59;;;;;;;3.42;0.85;;;;;;;6.88;72.18;101157.59;5053402;28;20091;-74
2022/04/09 10:25:30;;;;;;;2.00;0.57;;;;;;;6.88;71.47;101152.47;5051918;28;20053;-74
2022/04/09 10:28:03;;;;;;;4.20;0.65;;;;;;;7.30;72.05;101156.00;5053228;28;20021;-74
2022/04/09 10:30:29;;;;;;;;;;;;;;;7.48;71.76;101161.84;5035854;28;20025;-74
2022/04/09 10:33:00;;;;;;;3.63;0.80;;;;;;;7.74;70.76;101163.47;5054803;28;19908;-75
2022/04/09 10:35:29;;;;;;;7.05;1.00;;;;;;;7.96;68.97;101162.06;5055095;28;20469;-75
2022/04/09 10:38:07;;;;;;;6.35;1.10;;;;;;;9.36;69.25;101171.13;5052029;28;20020;-74
2022/04/09 10:40:36;;;;;;;3.70;0.90;;;;;;;10.26;64.00;101155.00;5053438;28;20051;-74
2022/04/09 10:43:03;;;;;;;3.20;0.77;;;;;;;10.62;60.91;101168.09;5052525;28;20083;-74
2022/04/09 10:45:29;;;;;;;7.18;1.65;;;;;;;10.82;61.70;101163.22;5035574;28;20017;-75
2022/04/09 10:48:05;;;;;;;4.47;1.10;;;;;;;10.71;61.01;101167.03;5054460;28;20075;-74
2022/04/09 10:50:58;;;;;;;7.05;1.27;;;;;;;11.13;62.06;101168.16;5055870;28;20112;-75
2022/04/09 10:53:29;;;;;;;9.52;1.40;;;;;;;11.65;61.04;101150.78;5055199;28;20039;-74
2022/04/09 10:56:32;;;;;;;9.55;1.20;;;;;;;12.20;60.21;101154.50;5053466;28;20426;-75
2022/04/09 10:58:59;;;;;;;9.20;1.63;;;;;;;11.99;60.38;101165.66;5034990;28;20036;-75
2022/04/09 11:01:46;;;;;;;8.68;1.77;;;;;;;12.65;59.56;101158.34;5051546;28;20083;-75
2022/04/09 11:04:34;;;;;;;4.90;1.60;;;;;;;12.78;57.41;101152.47;5053285;28;20036;-75
2022/04/09 11:07:16;;;;;;;8.15;1.55;;;;;;;12.95;58.19;101176.28;5061976;28;20029;-75
2022/04/09 11:09:51;;;;;;;5.38;1.42;;;;;;;12.80;56.15;101168.63;5055857;28;20041;-74
2022/04/09 11:12:26;;;;;;;8.90;1.55;;;;;;;13.84;55.38;101170.16;5056719;28;20148;-75
2022/04/09 11:15:03;;;;;;;10.13;1.92;;;;;;;12.38;56.81;101205.84;5057229;28;20096;-75
2022/04/09 11:17:47;;;;;;;4.80;1.40;;;;;;;9.66;67.69;101231.44;5057804;28;20025;-75
2022/04/09 11:20:16;;;;;;;;;;;;;;;7.97;74.60;101218.53;5056931;28;20131;-75
2022/04/09 11:22:43;;;;;;;2.80;1.15;;;;;;;7.62;77.51;101222.97;5057045;28;19909;-74
2022/04/09 11:25:19;;;;;;;3.22;1.08;;;;;;;7.74;77.16;101225.22;5057465;28;20032;-74
2022/04/09 11:27:44;;;;;;;11.80;1.65;;;;;;;7.95;77.68;101225.59;5057894;28;20020;-74